Time;durP1;ratioP1;P1;durP2;ratioP2;P2;SDS_P1;SDS_P2;PMS_P1;PMS_P2;Temp;Humidity;BMP_temperature;BMP_pressure;BME280_temperature;BME280_humidity;BME280_pressure;Samples;Min_cycle;Max_cycle;Signal;HPM_P1;HPM_P2
2021/04/08 00:00:05;;;;;;;2.80;1.48;;;1.80;77.60;;;;;;5000115;28;20103;-62
2021/04/08 00:02:32;;;;;;;5.97;1.85;;;1.90;78.20;;;;;;5002056;28;20042;-62
2021/04/08 00:04:59;;;;;;;7.35;2.03;;;1.90;77.00;;;;;;5000853;28;20121;-63
2021/04/08 00:07:26;;;;;;;4.82;1.58;;;2.00;77.00;;;;;;5000873;28;20431;-62
2021/04/08 00:09:53;;;;;;;10.57;2.30;;;2.00;76.50;;;;;;5002380;28;20066;-62
2021/04/08 00:12:20;;;;;;;6.72;1.80;;;2.00;76.60;;;;;;5002113;28;20068;-62
2021/04/08 00:14:47;;;;;;;5.63;1.90;;;1.90;77.40;;;;;;5000965;28;20057;-62
2021/04/08 00:17:14;;;;;;;2.25;1.35;;;1.90;77.80;;;;;;5001534;28;20046;-62
2021/04/08 00:19:41;;;;;;;4.18;2.08;;;1.90;77.10;;;;;;5001633;28;20076;-62
2021/04/08 00:22:08;;;;;;;4.22;1.90;;;1.90;77.80;;;;;;5000611;28;20336;-62
2021/04/08 00:24:35;;;;;;;2.97;1.58;;;1.80;77.70;;;;;;5001362;28;20068;-63
2021/04/08 00:27:04;;;;;;;8.20;1.70;;;1.70;78.00;;;;;;5001357;28;20101;-62
2021/04/08 00:29:31;;;;;;;4.35;1.63;;;1.70;78.40;;;;;;5001328;28;20155;-63
2021/04/08 00:31:58;;;;;;;8.25;2.25;;;1.60;78.50;;;;;;5000519;28;20106;-62
2021/04/08 00:34:25;;;;;;;4.63;2.10;;;1.70;78.20;;;;;;4999178;28;20579;-62
2021/04/08 00:36:54;;;;;;;3.58;1.95;;;1.60;78.90;;;;;;4999517;28;20053;-62
2021/04/08 00:39:21;;;;;;;4.65;1.90;;;1.50;79.50;;;;;;4999178;28;20050;-62
2021/04/08 00:41:49;;;;;;;7.95;3.22;;;1.50;79.60;;;;;;4998346;28;20332;-63
2021/04/08 00:44:16;;;;;;;2.85;2.00;;;1.40;79.80;;;;;;4999376;28;20125;-62
2021/04/08 00:46:43;;;;;;;6.10;2.55;;;1.30;80.20;;;;;;4999215;28;20047;-62
2021/04/08 00:49:09;;;;;;;4.80;1.77;;;1.30;80.30;;;;;;4997719;28;20257;-62
2021/04/08 00:51:37;;;;;;;5.43;1.95;;;1.30;80.30;;;;;;4997927;28;20046;-62
2021/04/08 00:54:05;;;;;;;3.70;2.03;;;1.20;80.50;;;;;;4998577;28;20260;-64
2021/04/08 00:56:33;;;;;;;6.60;2.28;;;1.20;80.80;;;;;;4998620;28;20281;-62
2021/04/08 00:59:06;;;;;;;4.68;1.73;;;1.10;81.10;;;;;;4997322;28;20361;-63
2021/04/08 01:01:33;;;;;;;5.82;1.98;;;1.00;81.40;;;;;;4995889;28;20111;-63
2021/04/08 01:04:00;;;;;;;4.85;2.15;;;1.00;81.30;;;;;;4998933;28;20050;-64
2021/04/08 01:06:27;;;;;;;5.50;2.33;;;1.10;81.00;;;;;;4998433;28;20333;-64
2021/04/08 01:08:54;;;;;;;6.35;2.17;;;1.00;81.30;;;;;;4999277;28;20106;-62
2021/04/08 01:11:21;;;;;;;7.47;2.72;;;1.00;82.40;;;;;;4997909;28;20046;-63
2021/04/08 01:13:49;;;;;;;5.45;2.40;;;1.00;82.00;;;;;;4999260;28;20050;-62
2021/04/08 01:16:28;;;;;;;3.20;2.17;;;1.00;82.00;;;;;;4996187;28;20478;-63
2021/04/08 01:19:02;;;;;;;4.65;2.08;;;0.90;82.60;;;;;;4998629;28;20050;-63
2021/04/08 01:21:37;;;;;;;10.02;2.67;;;0.90;82.40;;;;;;4997936;28;20342;-62
2021/04/08 01:24:39;;;;;;;5.68;2.72;;;0.80;82.70;;;;;;4977653;28;20075;-62
2021/04/08 01:27:29;;;;;;;4.95;2.65;;;0.70;83.30;;;;;;694051;28;10002074;-62
2021/04/08 01:30:31;;;;;;;4.78;2.33;;;0.70;83.80;;;;;;5061974;28;20060;-63
2021/04/08 01:33:01;;;;;;;5.72;2.03;;;0.50;84.30;;;;;;5061916;28;20151;-62
2021/04/08 01:35:30;;;;;;;4.57;2.05;;;0.50;84.90;;;;;;5060349;28;21107;-63
2021/04/08 01:38:17;;;;;;;5.25;2.53;;;0.50;85.40;;;;;;5062609;28;20049;-62
2021/04/08 01:40:46;;;;;;;10.45;3.20;;;0.50;85.40;;;;;;5061748;28;20305;-64
2021/04/08 01:43:15;;;;;;;4.22;2.53;;;0.50;85.30;;;;;;5061694;28;20052;-63
2021/04/08 01:45:45;;;;;;;8.35;2.35;;;0.60;85.20;;;;;;5062058;28;20056;-63
2021/04/08 01:48:13;;;;;;;3.80;1.83;;;0.70;84.60;;;;;;5061776;28;20064;-64
2021/04/08 01:50:41;;;;;;;5.93;2.33;;;0.70;84.40;;;;;;5061827;28;20409;-62
2021/04/08 01:53:16;;;;;;;11.07;3.13;;;0.70;84.30;;;;;;5060613;28;20050;-63
2021/04/08 01:55:45;;;;;;;9.13;2.95;;;0.90;83.40;;;;;;5061957;28;20051;-63
2021/04/08 01:58:12;;;;;;;5.28;2.60;;;0.90;82.90;;;;;;5061568;28;20056;-62
2021/04/08 02:00:40;;;;;;;7.13;2.97;;;1.00;82.70;;;;;;5058282;28;20299;-62
2021/04/08 02:03:10;;;;;;;5.53;2.65;;;1.10;82.30;;;;;;5062127;28;20060;-62
2021/04/08 02:05:37;;;;;;;5.97;2.83;;;1.00;82.90;;;;;;5061287;28;20107;-62
2021/04/08 02:08:06;;;;;;;8.48;2.83;;;1.00;82.80;;;;;;5060954;28;20059;-63
2021/04/08 02:10:34;;;;;;;9.90;2.40;;;1.00;82.80;;;;;;5060678;28;20120;-63
2021/04/08 02:13:03;;;;;;;5.15;2.58;;;1.00;82.90;;;;;;5061181;28;20119;-62
2021/04/08 02:15:30;;;;;;;9.52;2.55;;;0.90;83.20;;;;;;5062363;28;20055;-63
2021/04/08 02:17:59;;;;;;;7.63;2.85;;;0.80;83.80;;;;;;5060671;28;20049;-63
2021/04/08 02:20:31;;;;;;;9.00;2.92;;;0.80;83.00;;;;;;5060841;28;20824;-63
2021/04/08 02:23:01;;;;;;;6.15;2.72;;;0.70;83.60;;;;;;5060376;28;20051;-63
2021/04/08 02:25:33;;;;;;;12.40;3.08;;;0.70;83.90;;;;;;5057635;28;20403;-63
2021/04/08 02:28:02;;;;;;;5.75;3.03;;;0.50;84.50;;;;;;5059511;28;20094;-62
2021/04/08 02:30:29;;;;;;;9.52;2.88;;;0.40;84.70;;;;;;5059933;28;20048;-63
2021/04/08 02:32:57;;;;;;;3.22;1.85;;;0.40;85.00;;;;;;5059453;28;20063;-62
2021/04/08 02:35:24;;;;;;;4.57;2.20;;;0.20;85.70;;;;;;5058575;28;21698;-63
2021/04/08 02:37:52;;;;;;;4.55;2.33;;;0.10;86.00;;;;;;5058443;28;20348;-62
2021/04/08 02:40:21;;;;;;;10.65;2.97;;;0.10;86.50;;;;;;5060032;28;20360;-63
2021/04/08 02:42:48;;;;;;;7.22;2.80;;;0.00;86.50;;;;;;5063200;28;20060;-62
2021/04/08 02:45:16;;;;;;;5.72;2.50;;;0.00;86.60;;;;;;5063152;28;20064;-63
2021/04/08 02:47:43;;;;;;;7.80;2.63;;;0.00;87.00;;;;;;5063668;28;20232;-62
2021/04/08 02:50:13;;;;;;;5.57;2.67;;;0.10;86.70;;;;;;5060168;28;20095;-63
2021/04/08 02:52:50;;;;;;;6.70;2.35;;;0.00;86.70;;;;;;5063357;28;20037;-63
2021/04/08 02:55:23;;;;;;;5.30;2.50;;;0.00;87.10;;;;;;5062853;28;20293;-63
2021/04/08 02:57:55;;;;;;;10.40;4.65;;;0.00;87.70;;;;;;5063541;28;20041;-63
2021/04/08 03:00:25;;;;;;;6.47;2.65;;;0.00;88.00;;;;;;5058377;28;20053;-62
2021/04/08 03:02:56;;;;;;;10.25;2.95;;;0.00;87.80;;;;;;5062793;28;20048;-63
2021/04/08 03:05:24;;;;;;;7.33;2.67;;;0.00;87.90;;;;;;5062679;28;20130;-61
2021/04/08 03:07:53;;;;;;;6.40;2.63;;;-3276.70;88.00;;;;;;5062307;28;20634;-63
2021/04/08 03:10:22;;;;;;;16.83;3.25;;;-3276.70;88.20;;;;;;5062327;28;20056;-62
2021/04/08 03:12:51;;;;;;;5.85;2.65;;;-3276.60;88.50;;;;;;5064427;28;20052;-62
2021/04/08 03:15:22;;;;;;;3.50;2.03;;;-3276.60;88.40;;;;;;5063841;28;20330;-62
2021/04/08 03:17:52;;;;;;;7.97;3.38;;;-3276.50;88.40;;;;;;5064283;28;20053;-63
2021/04/08 03:20:19;;;;;;;7.25;3.50;;;-3276.40;89.30;;;;;;5063507;28;20057;-63
2021/04/08 03:22:47;;;;;;;5.57;2.95;;;-3276.40;89.00;;;;;;5063769;28;20063;-62
2021/04/08 03:25:14;;;;;;;5.32;2.58;;;-3276.30;89.20;;;;;;5064121;28;20373;-63
2021/04/08 03:27:43;;;;;;;6.55;2.63;;;-3276.40;89.20;;;;;;5063803;28;20296;-62
2021/04/08 03:30:12;;;;;;;7.20;2.42;;;-3276.50;88.90;;;;;;5063841;28;20108;-63
2021/04/08 03:32:40;;;;;;;9.32;2.63;;;-3276.50;88.60;;;;;;5071259;28;20091;-62
2021/04/08 03:35:09;;;;;;;4.43;1.90;;;-3276.50;88.60;;;;;;5063225;28;20053;-62
2021/04/08 03:37:36;;;;;;;7.15;2.67;;;-3276.60;88.40;;;;;;5063680;28;20271;-62
2021/04/08 03:40:05;;;;;;;15.52;3.45;;;-3276.60;88.20;;;;;;5063311;28;20048;-63
2021/04/08 03:42:33;;;;;;;4.70;2.05;;;-3276.70;88.00;;;;;;5070500;28;20045;-63
2021/04/08 03:45:02;;;;;;;10.15;2.92;;;0.00;87.50;;;;;;5063504;28;20041;-62
2021/04/08 03:47:36;;;;;;;8.60;2.72;;;0.00;87.10;;;;;;5064104;28;20336;-62
2021/04/08 03:50:04;;;;;;;3.58;1.67;;;0.10;86.90;;;;;;5062873;28;20112;-62
2021/04/08 03:52:31;;;;;;;4.53;2.50;;;0.20;86.20;;;;;;5063060;28;20064;-63
2021/04/08 03:54:58;;;;;;;6.50;2.88;;;0.30;86.00;;;;;;5063511;28;20256;-63
2021/04/08 03:57:26;;;;;;;5.80;2.78;;;0.30;85.60;;;;;;5063033;28;20470;-63
2021/04/08 03:59:53;;;;;;;11.63;2.95;;;0.40;85.20;;;;;;5063997;28;20232;-63
2021/04/08 04:02:22;;;;;;;4.82;2.13;;;0.40;85.70;;;;;;5059983;28;20044;-62
2021/04/08 04:04:50;;;;;;;6.93;2.30;;;0.50;85.00;;;;;;5063025;28;20095;-63
2021/04/08 04:07:18;;;;;;;5.32;2.10;;;0.50;85.20;;;;;;5063536;28;20421;-62
2021/04/08 04:09:45;;;;;;;4.75;2.53;;;0.50;85.20;;;;;;5063573;28;20128;-63
2021/04/08 04:12:15;;;;;;;7.68;3.15;;;0.60;85.50;;;;;;5062926;28;20111;-62
2021/04/08 04:14:44;;;;;;;3.10;1.92;;;0.70;85.40;;;;;;5062612;28;20071;-62
2021/04/08 04:17:26;;;;;;;3.60;1.63;;;0.70;85.00;;;;;;5051911;28;21761;-63
2021/04/08 04:19:54;;;;;;;10.75;2.05;;;0.70;85.60;;;;;;5061692;28;20052;-63
2021/04/08 04:22:22;;;;;;;10.40;2.35;;;0.60;85.30;;;;;;5076182;28;20047;-63
2021/04/08 04:24:49;;;;;;;5.40;2.65;;;0.40;85.50;;;;;;5061969;28;20047;-62
2021/04/08 04:27:17;;;;;;;10.43;2.47;;;0.40;85.40;;;;;;5059307;28;20056;-62
2021/04/08 04:29:44;;;;;;;6.85;2.33;;;0.30;85.40;;;;;;5060892;28;20102;-63
2021/04/08 04:32:12;;;;;;;5.07;2.08;;;0.20;85.40;;;;;;5060752;28;20064;-63
2021/04/08 04:34:41;;;;;;;6.85;2.45;;;0.10;85.40;;;;;;5061413;28;20051;-63
2021/04/08 04:37:09;;;;;;;9.07;2.20;;;0.10;85.60;;;;;;5059983;28;20069;-63
2021/04/08 04:39:36;;;;;;;6.78;2.05;;;0.00;85.80;;;;;;5061302;28;20300;-63
2021/04/08 04:42:04;;;;;;;4.40;2.22;;;0.00;85.80;;;;;;5060852;28;20363;-63
2021/04/08 04:44:31;;;;;;;6.82;2.78;;;0.00;85.90;;;;;;5060792;28;20044;-63
2021/04/08 04:46:58;;;;;;;3.67;1.92;;;0.00;86.00;;;;;;5060234;28;20064;-62
2021/04/08 04:49:25;;;;;;;8.90;2.22;;;0.00;86.10;;;;;;5060073;28;20377;-63
2021/04/08 04:51:53;;;;;;;7.63;2.78;;;-3276.70;86.30;;;;;;5060710;28;20044;-62
2021/04/08 04:54:20;;;;;;;9.85;4.03;;;0.00;86.40;;;;;;5059966;28;20056;-63
2021/04/08 04:56:48;;;;;;;6.70;3.28;;;0.00;86.20;;;;;;5060399;28;20049;-62
2021/04/08 04:59:20;;;;;;;8.73;2.28;;;-3276.70;86.40;;;;;;5061245;28;20049;-64
2021/04/08 05:01:46;;;;;;;5.10;2.53;;;-3276.70;86.80;;;;;;5073037;28;20046;-62
2021/04/08 05:04:13;;;;;;;6.50;2.30;;;-3276.60;87.30;;;;;;5061106;28;20268;-62
2021/04/08 05:06:40;;;;;;;5.60;2.47;;;-3276.60;87.30;;;;;;5062458;28;20351;-63
2021/04/08 05:09:08;;;;;;;9.43;2.47;;;-3276.50;87.30;;;;;;5061728;28;20045;-62
2021/04/08 05:11:35;;;;;;;5.18;2.88;;;-3276.50;87.40;;;;;;5061943;28;20045;-62
2021/04/08 05:14:03;;;;;;;6.15;2.90;;;-3276.40;87.60;;;;;;5062147;28;20284;-62
2021/04/08 05:16:30;;;;;;;7.95;2.45;;;-3276.40;88.10;;;;;;5062299;28;20112;-63
2021/04/08 05:18:57;;;;;;;4.28;2.08;;;-3276.30;88.70;;;;;;5061273;28;20069;-64
2021/04/08 05:21:23;;;;;;;4.55;2.75;;;-3276.30;89.10;;;;;;5061891;28;20052;-63
2021/04/08 05:23:50;;;;;;;9.50;2.72;;;-3276.40;89.30;;;;;;5061873;28;20072;-62
2021/04/08 05:26:18;;;;;;;6.82;2.92;;;-3276.40;89.40;;;;;;5061539;28;20049;-63
2021/04/08 05:28:45;;;;;;;6.35;2.25;;;-3276.60;89.50;;;;;;5061365;28;20053;-62
2021/04/08 05:31:12;;;;;;;6.55;2.92;;;-3276.60;89.20;;;;;;5061404;28;20247;-63
2021/04/08 05:33:39;;;;;;;10.55;4.15;;;0.00;89.10;;;;;;5062751;28;20060;-62
2021/04/08 05:36:06;;;;;;;8.38;3.40;;;0.10;88.50;;;;;;5061287;28;20340;-62
2021/04/08 05:38:36;;;;;;;9.00;3.85;;;0.20;88.40;;;;;;5061769;28;20057;-63
2021/04/08 05:41:03;;;;;;;7.77;3.53;;;0.30;87.80;;;;;;5061906;28;20240;-63
2021/04/08 05:43:31;;;;;;;7.90;3.13;;;0.40;87.10;;;;;;5061559;28;20293;-62
2021/04/08 05:45:58;;;;;;;8.85;3.05;;;0.50;86.80;;;;;;5028549;28;20160;-62
2021/04/08 05:48:25;;;;;;;7.22;3.00;;;0.60;85.70;;;;;;4979245;28;20915;-62
2021/04/08 05:50:52;;;;;;;5.38;2.67;;;0.80;85.60;;;;;;4980997;28;20058;-62
2021/04/08 05:53:18;;;;;;;7.13;2.97;;;0.80;85.60;;;;;;4980072;28;20134;-63
2021/04/08 05:55:45;;;;;;;5.80;2.90;;;0.90;85.60;;;;;;4979133;28;20054;-63
2021/04/08 05:58:12;;;;;;;5.95;3.03;;;1.00;84.70;;;;;;4980096;28;20073;-62
2021/04/08 06:00:40;;;;;;;15.65;3.78;;;1.10;84.40;;;;;;4975502;28;20189;-62
2021/04/08 06:03:07;;;;;;;10.32;3.67;;;1.00;84.40;;;;;;4977426;28;20042;-63
2021/04/08 06:05:35;;;;;;;4.35;2.50;;;1.10;84.00;;;;;;4977520;28;20070;-62
2021/04/08 06:08:03;;;;;;;7.47;3.35;;;1.10;84.20;;;;;;4977958;28;20058;-62
2021/04/08 06:10:30;;;;;;;6.25;2.83;;;1.20;83.90;;;;;;4978102;28;20077;-62
2021/04/08 06:12:57;;;;;;;10.23;3.47;;;1.20;83.50;;;;;;4978056;28;20331;-62
2021/04/08 06:15:24;;;;;;;6.10;2.47;;;1.30;83.30;;;;;;4975885;28;20703;-63
2021/04/08 06:17:52;;;;;;;8.73;2.78;;;1.40;82.70;;;;;;4977878;28;20906;-63
2021/04/08 06:20:19;;;;;;;7.43;3.13;;;1.40;82.70;;;;;;4977247;28;20294;-61
2021/04/08 06:22:46;;;;;;;7.10;2.20;;;1.50;82.30;;;;;;4977927;28;20042;-62
2021/04/08 06:25:14;;;;;;;8.95;2.92;;;1.60;82.00;;;;;;4977432;28;20110;-62
2021/04/08 06:27:41;;;;;;;5.20;2.85;;;1.70;81.50;;;;;;4977737;28;20073;-62
2021/04/08 06:30:10;;;;;;;7.15;2.80;;;1.80;81.00;;;;;;4978931;28;20113;-63
2021/04/08 06:32:37;;;;;;;8.13;2.72;;;1.70;81.20;;;;;;4976735;28;20066;-63
2021/04/08 06:35:06;;;;;;;4.97;2.53;;;1.80;81.00;;;;;;4977600;28;20061;-62
2021/04/08 06:37:33;;;;;;;9.13;3.65;;;2.10;81.10;;;;;;4977931;28;20125;-63
2021/04/08 06:40:03;;;;;;;7.63;2.50;;;2.30;80.80;;;;;;4977335;28;20046;-62
2021/04/08 06:42:34;;;;;;;5.07;2.45;;;2.30;80.20;;;;;;4978161;28;20092;-62
2021/04/08 06:45:05;;;;;;;5.05;2.05;;;2.40;79.30;;;;;;4976973;28;20062;-62
2021/04/08 06:47:38;;;;;;;6.40;2.60;;;2.40;79.70;;;;;;4978515;28;20046;-62
2021/04/08 06:50:08;;;;;;;5.18;2.45;;;2.50;78.90;;;;;;4977822;28;20046;-62
2021/04/08 06:52:38;;;;;;;5.77;3.23;;;2.60;79.00;;;;;;4980323;28;20073;-63
2021/04/08 06:55:05;;;;;;;6.45;2.88;;;2.60;79.00;;;;;;4979277;28;20066;-63
2021/04/08 06:57:33;;;;;;;5.10;2.25;;;2.50;78.30;;;;;;4979966;28;20042;-62
2021/04/08 07:00:02;;;;;;;10.73;2.95;;;2.60;78.70;;;;;;4979073;28;20105;-63
2021/04/08 07:02:32;;;;;;;9.20;4.05;;;2.70;78.20;;;;;;4982198;28;20043;-62
2021/04/08 07:04:59;;;;;;;8.40;3.22;;;2.70;77.50;;;;;;4979849;28;20050;-62
2021/04/08 07:07:30;;;;;;;3.80;1.63;;;2.70;76.80;;;;;;4979189;28;20096;-61
2021/04/08 07:09:57;;;;;;;6.20;3.07;;;2.80;76.40;;;;;;4978580;28;20042;-62
2021/04/08 07:12:25;;;;;;;8.48;2.40;;;2.80;75.70;;;;;;4978141;28;20278;-62
2021/04/08 07:14:53;;;;;;;6.18;2.70;;;3.10;76.40;;;;;;4979929;28;20043;-63
2021/04/08 07:17:21;;;;;;;6.10;2.78;;;3.10;75.10;;;;;;4978498;28;20245;-62
2021/04/08 07:19:48;;;;;;;4.53;2.47;;;3.10;74.90;;;;;;4979476;28;20054;-62
2021/04/08 07:22:17;;;;;;;6.65;2.85;;;3.20;75.00;;;;;;4978774;28;20051;-61
2021/04/08 07:24:46;;;;;;;8.50;3.10;;;3.20;74.60;;;;;;4979155;28;20079;-63
2021/04/08 07:27:18;;;;;;;5.32;2.25;;;3.20;75.30;;;;;;4980727;28;20544;-63
2021/04/08 07:29:52;;;;;;;3.97;2.00;;;3.30;75.00;;;;;;4983058;28;20098;-63
2021/04/08 07:32:24;;;;;;;5.70;3.30;;;3.40;73.20;;;;;;4982802;28;21448;-63
2021/04/08 07:34:52;;;;;;;4.22;2.10;;;3.50;73.10;;;;;;4982974;28;20054;-61
2021/04/08 07:37:25;;;;;;;7.03;2.13;;;3.60;72.50;;;;;;4982481;28;20159;-62
2021/04/08 07:39:53;;;;;;;10.25;3.80;;;3.70;72.80;;;;;;4982975;28;20109;-62
2021/04/08 07:42:25;;;;;;;7.05;2.47;;;3.80;71.40;;;;;;4982103;28;20088;-63
2021/04/08 07:44:53;;;;;;;5.95;2.97;;;4.00;70.90;;;;;;4982674;28;20334;-62
2021/04/08 07:47:26;;;;;;;4.47;2.30;;;3.90;71.10;;;;;;4982036;28;20074;-62
2021/04/08 07:49:55;;;;;;;12.63;3.35;;;4.00;70.80;;;;;;4983699;28;20128;-62
2021/04/08 07:52:27;;;;;;;4.03;2.33;;;4.20;70.70;;;;;;4980496;28;20283;-62
2021/04/08 07:55:02;;;;;;;7.07;2.78;;;4.10;70.10;;;;;;4980945;28;20055;-63
2021/04/08 07:57:30;;;;;;;10.52;2.65;;;4.20;70.90;;;;;;4980778;28;20534;-61
2021/04/08 07:59:57;;;;;;;8.43;3.50;;;4.40;70.10;;;;;;4981130;28;20092;-62
2021/04/08 08:02:26;;;;;;;5.25;3.15;;;4.40;67.90;;;;;;4978022;28;20313;-62
2021/04/08 08:05:18;;;;;;;6.55;2.83;;;4.40;68.10;;;;;;4980684;28;20303;-62
2021/04/08 08:07:45;;;;;;;5.35;2.58;;;4.70;67.70;;;;;;4979103;28;20544;-62
2021/04/08 08:10:25;;;;;;;7.85;2.55;;;4.90;67.40;;;;;;4981309;28;20135;-63
2021/04/08 08:12:53;;;;;;;6.13;2.17;;;5.00;66.50;;;;;;4981610;28;20393;-62
2021/04/08 08:15:26;;;;;;;4.78;2.35;;;5.00;65.10;;;;;;4979483;28;20109;-62
2021/04/08 08:17:55;;;;;;;9.35;2.55;;;4.90;66.50;;;;;;4979629;28;20054;-62
2021/04/08 08:20:23;;;;;;;9.73;2.83;;;5.20;65.00;;;;;;4973440;28;20391;-62
2021/04/08 08:22:50;;;;;;;6.43;2.42;;;4.90;64.80;;;;;;4979932;28;20071;-62
2021/04/08 08:25:26;;;;;;;5.85;2.83;;;5.20;65.30;;;;;;4980569;28;20122;-62
2021/04/08 08:27:54;;;;;;;12.05;2.85;;;5.40;65.10;;;;;;4979536;28;20062;-62
2021/04/08 08:30:24;;;;;;;9.63;3.08;;;5.30;64.20;;;;;;4980395;28;20392;-62
2021/04/08 08:33:16;;;;;;;7.32;2.97;;;5.40;64.70;;;;;;4979593;28;20311;-62
2021/04/08 08:35:43;;;;;;;5.07;2.63;;;5.70;63.70;;;;;;4979324;28;20898;-62
2021/04/08 08:38:16;;;;;;;6.40;2.47;;;5.70;61.80;;;;;;4980634;28;20043;-62
2021/04/08 08:40:46;;;;;;;10.65;3.35;;;5.80;62.40;;;;;;4982670;28;20118;-62
2021/04/08 08:43:15;;;;;;;7.97;2.88;;;5.80;60.80;;;;;;4981708;28;20054;-62
2021/04/08 08:45:42;;;;;;;4.63;2.63;;;5.80;61.50;;;;;;4981315;28;20081;-62
2021/04/08 08:48:14;;;;;;;5.35;2.47;;;5.60;62.00;;;;;;4981475;28;20053;-61
2021/04/08 08:50:43;;;;;;;9.18;2.17;;;5.70;63.00;;;;;;4981359;28;20357;-62
2021/04/08 08:53:17;;;;;;;10.13;3.08;;;5.40;63.50;;;;;;4981523;28;20058;-62
2021/04/08 08:55:46;;;;;;;5.63;2.25;;;5.40;63.20;;;;;;4982347;28;20368;-63
2021/04/08 08:58:13;;;;;;;5.07;2.42;;;5.40;64.20;;;;;;4982007;28;20387;-62
2021/04/08 09:00:41;;;;;;;9.52;3.13;;;5.20;65.50;;;;;;4980268;28;20237;-61
2021/04/08 09:03:30;;;;;;;5.22;3.15;;;5.60;64.40;;;;;;4982335;28;20050;-62
2021/04/08 09:05:59;;;;;;;4.82;2.50;;;5.40;64.00;;;;;;4980662;28;20350;-62
2021/04/08 09:08:51;;;;;;;5.78;2.50;;;5.30;64.10;;;;;;4980353;28;20072;-62
2021/04/08 09:11:24;;;;;;;5.43;2.30;;;5.60;64.40;;;;;;4981061;28;20050;-62
2021/04/08 09:13:52;;;;;;;6.95;3.03;;;5.30;64.20;;;;;;4980913;28;20054;-62
2021/04/08 09:16:19;;;;;;;6.47;3.03;;;5.30;64.60;;;;;;4981729;28;20061;-62
2021/04/08 09:19:00;;;;;;;6.53;3.00;;;5.30;65.00;;;;;;4981526;28;20046;-63
2021/04/08 09:21:41;;;;;;;6.80;1.85;;;5.20;65.60;;;;;;4991701;28;20319;-61
2021/04/08 09:24:17;;;;;;;8.18;3.03;;;5.20;65.50;;;;;;5061426;28;20044;-63
2021/04/08 09:26:50;;;;;;;7.43;2.65;;;5.70;64.40;;;;;;5063837;28;20049;-62
2021/04/08 09:29:43;;;;;;;8.25;2.80;;;5.70;63.10;;;;;;5061628;28;20056;-62
2021/04/08 09:32:32;;;;;;;7.32;3.15;;;5.60;64.30;;;;;;5062035;28;20336;-62
2021/04/08 09:35:17;;;;;;;9.73;3.13;;;5.30;63.40;;;;;;5055274;28;20068;-62
2021/04/08 09:38:20;;;;;;;5.43;2.22;;;5.70;63.60;;;;;;5062629;28;20067;-62
2021/04/08 09:40:58;;;;;;;4.78;2.00;;;6.00;61.30;;;;;;5057250;28;20484;-62
2021/04/08 09:43:27;;;;;;;5.38;2.20;;;6.20;62.50;;;;;;5027438;28;20324;-63
2021/04/08 09:45:59;;;;;;;6.68;2.22;;;6.10;60.10;;;;;;5060960;28;20071;-63
2021/04/08 09:48:41;;;;;;;5.65;2.60;;;6.20;60.00;;;;;;5060463;28;20584;-62
2021/04/08 09:51:08;;;;;;;5.70;2.50;;;6.20;59.70;;;;;;5060877;28;20277;-62
2021/04/08 09:54:14;;;;;;;15.85;2.65;;;6.70;59.50;;;;;;5065536;28;20055;-62
2021/04/08 09:56:46;;;;;;;4.25;1.80;;;7.30;58.00;;;;;;5061015;28;20329;-62
2021/04/08 09:59:19;;;;;;;6.53;2.25;;;7.30;55.30;;;;;;5064682;28;20059;-62
2021/04/08 10:01:53;;;;;;;3.40;1.58;;;7.10;57.20;;;;;;5057979;28;20049;-62
2021/04/08 10:04:23;;;;;;;5.40;2.30;;;7.00;56.00;;;;;;5061344;28;20032;-62
2021/04/08 10:07:00;;;;;;;4.05;1.90;;;7.20;57.20;;;;;;5060133;28;20365;-63
2021/04/08 10:09:31;;;;;;;7.78;2.08;;;6.90;54.30;;;;;;4978657;28;20385;-63
2021/04/08 10:11:58;;;;;;;6.63;1.90;;;7.00;55.70;;;;;;4979163;28;20054;-62
2021/04/08 10:14:28;;;;;;;7.30;2.35;;;6.90;55.00;;;;;;4977482;28;20595;-62
2021/04/08 10:17:08;;;;;;;4.07;1.73;;;7.10;54.90;;;;;;4979397;28;20107;-61
2021/04/08 10:19:36;;;;;;;5.57;1.97;;;8.90;50.90;;;;;;4977313;28;20596;-62
2021/04/08 10:22:04;;;;;;;6.00;1.33;;;10.00;48.00;;;;;;4979245;28;20047;-62
2021/04/08 10:24:36;;;;;;;6.65;1.88;;;9.40;47.30;;;;;;4979332;28;20096;-62
2021/04/08 10:27:13;;;;;;;5.93;1.45;;;9.00;46.20;;;;;;4979151;28;20058;-62
2021/04/08 10:29:41;;;;;;;3.72;0.90;;;8.50;44.20;;;;;;4981715;28;20331;-61
2021/04/08 10:32:08;;;;;;;2.03;0.88;;;8.80;44.80;;;;;;4980794;28;20061;-63
2021/04/08 10:34:37;;;;;;;4.55;1.55;;;8.10;45.60;;;;;;4979440;28;20055;-62
2021/04/08 10:37:06;;;;;;;1.25;0.82;;;7.50;48.70;;;;;;4980954;28;20061;-61
2021/04/08 10:39:34;;;;;;;2.05;0.65;;;7.40;46.30;;;;;;4983166;28;20118;-62
2021/04/08 10:42:04;;;;;;;4.60;0.95;;;7.20;47.60;;;;;;4979469;28;20097;-62
2021/04/08 10:44:33;;;;;;;3.78;1.40;;;7.10;45.90;;;;;;4980693;28;20054;-62
2021/04/08 10:47:08;;;;;;;10.30;1.83;;;7.00;47.50;;;;;;4978938;28;20042;-62
2021/04/08 10:49:37;;;;;;;8.55;1.85;;;7.10;48.30;;;;;;4978938;28;20046;-62
2021/04/08 10:52:05;;;;;;;7.28;2.33;;;7.40;47.80;;;;;;4980878;28;20249;-62
2021/04/08 10:54:34;;;;;;;10.40;1.42;;;7.70;47.40;;;;;;4981719;28;20337;-62
2021/04/08 10:57:01;;;;;;;3.38;1.08;;;7.90;45.90;;;;;;4980173;28;20049;-62
2021/04/08 10:59:29;;;;;;;3.92;1.30;;;8.20;44.90;;;;;;4979796;28;20425;-62
2021/04/08 11:01:58;;;;;;;2.20;0.70;;;8.30;44.40;;;;;;4979068;28;20061;-63
2021/04/08 11:04:26;;;;;;;3.65;1.00;;;8.00;44.60;;;;;;4982898;28;20365;-62
2021/04/08 11:06:57;;;;;;;3.15;0.95;;;8.20;43.30;;;;;;4984330;28;20047;-62
2021/04/08 11:09:27;;;;;;;1.75;0.65;;;8.30;42.20;;;;;;4983032;28;21056;-62
2021/04/08 11:11:55;;;;;;;2.95;1.08;;;8.30;43.10;;;;;;4984875;28;20301;-62
2021/04/08 11:14:24;;;;;;;6.00;1.10;;;8.40;43.40;;;;;;4982870;28;20215;-62
2021/04/08 11:16:54;;;;;;;3.17;1.13;;;8.40;43.90;;;;;;4985052;28;20094;-62
2021/04/08 11:19:21;;;;;;;1.33;0.50;;;8.20;45.60;;;;;;4983884;28;20089;-62
2021/04/08 11:21:49;;;;;;;1.27;0.70;;;7.70;44.60;;;;;;4983810;28;20050;-63
2021/04/08 11:24:17;;;;;;;4.70;2.58;;;7.60;43.90;;;;;;4985088;28;20059;-63
2021/04/08 11:26:48;;;;;;;2.53;0.43;;;7.20;44.60;;;;;;4981913;28;20304;-62
2021/04/08 11:29:22;;;;;;;1.98;0.60;;;7.20;44.80;;;;;;4982607;28;20131;-62
2021/04/08 11:32:07;;;;;;;8.02;1.13;;;7.60;44.90;;;;;;4981220;28;20252;-62
2021/04/08 11:34:57;;;;;;;3.35;0.70;;;7.70;45.50;;;;;;4989352;28;20043;-63
2021/04/08 11:37:34;;;;;;;4.20;0.75;;;7.90;45.10;;;;;;4980676;28;20681;-63
2021/04/08 11:40:04;;;;;;;2.67;1.10;;;7.50;46.60;;;;;;4981243;28;20283;-63
2021/04/08 11:42:35;;;;;;;4.22;1.48;;;7.70;46.20;;;;;;4981239;28;20477;-63
2021/04/08 11:45:22;;;;;;;2.85;0.85;;;7.70;45.30;;;;;;4980840;28;20058;-62
2021/04/08 11:47:56;;;;;;;5.10;0.60;;;7.70;45.70;;;;;;4981506;28;20062;-63
2021/04/08 11:50:30;;;;;;;1.90;0.60;;;8.00;45.10;;;;;;4980217;28;20054;-62
2021/04/08 11:53:04;;;;;;;3.72;1.52;;;7.70;45.30;;;;;;4981887;28;20047;-62
2021/04/08 11:55:40;;;;;;;2.85;0.77;;;7.70;44.70;;;;;;4981282;28;20403;-62
2021/04/08 11:58:08;;;;;;;3.53;0.75;;;7.80;45.40;;;;;;4981428;28;20100;-63
2021/04/08 12:00:37;;;;;;;1.67;0.60;;;7.80;44.70;;;;;;4977540;28;20110;-63
2021/04/08 12:03:19;;;;;;;6.38;1.10;;;7.90;44.80;;;;;;4981314;28;20054;-62
2021/04/08 12:05:46;;;;;;;1.98;0.60;;;7.60;45.90;;;;;;4981953;28;20069;-62
2021/04/08 12:08:14;;;;;;;1.80;1.00;;;7.40;46.20;;;;;;4980738;28;20137;-62
2021/04/08 12:10:41;;;;;;;3.35;1.00;;;7.70;45.30;;;;;;4981477;28;20337;-62
2021/04/08 12:13:21;;;;;;;1.15;0.80;;;8.00;44.80;;;;;;4980078;28;20061;-62
2021/04/08 12:15:48;;;;;;;2.85;0.88;;;7.90;45.80;;;;;;4981462;28;20418;-62
2021/04/08 12:18:20;;;;;;;2.20;0.95;;;8.00;44.20;;;;;;4984145;28;20058;-62
2021/04/08 12:20:49;;;;;;;1.48;0.63;;;8.30;44.30;;;;;;4983044;28;20353;-63
2021/04/08 12:23:18;;;;;;;3.55;1.05;;;8.70;43.00;;;;;;4983329;28;20054;-62
2021/04/08 12:25:51;;;;;;;4.75;1.58;;;9.00;41.30;;;;;;4982657;28;20050;-62
2021/04/08 12:28:19;;;;;;;2.70;0.65;;;9.30;40.00;;;;;;4982640;28;20046;-62
2021/04/08 12:30:56;;;;;;;4.13;1.08;;;9.10;41.30;;;;;;4983533;28;20065;-62
2021/04/08 12:33:25;;;;;;;3.50;0.88;;;9.90;39.10;;;;;;4984046;28;20223;-62
2021/04/08 12:35:52;;;;;;;3.00;1.02;;;10.30;38.90;;;;;;4982330;28;20126;-62
2021/04/08 12:38:20;;;;;;;3.60;1.00;;;9.70;38.40;;;;;;4982022;28;20062;-62
2021/04/08 12:40:51;;;;;;;2.00;0.70;;;9.40;40.00;;;;;;4985582;28;20123;-61
2021/04/08 12:43:18;;;;;;;2.05;0.60;;;9.40;40.20;;;;;;4981876;28;20074;-62
2021/04/08 12:45:46;;;;;;;6.20;1.30;;;8.80;41.00;;;;;;4983096;28;20114;-62
2021/04/08 12:48:13;;;;;;;3.30;1.00;;;8.50;42.00;;;;;;4981176;28;20056;-63
2021/04/08 12:50:41;;;;;;;5.25;1.10;;;8.20;42.50;;;;;;4984301;28;20531;-63
2021/04/08 12:53:09;;;;;;;2.42;1.13;;;8.40;42.90;;;;;;4981629;28;20050;-62
2021/04/08 12:55:40;;;;;;;;;;;8.50;42.00;;;;;;4982348;28;20052;-62
2021/04/08 12:58:07;;;;;;;4.38;1.10;;;8.80;42.00;;;;;;4982501;28;20233;-62
2021/04/08 13:00:35;;;;;;;5.03;1.45;;;8.90;40.70;;;;;;4978980;28;20050;-63
2021/04/08 13:03:08;;;;;;;2.80;1.08;;;9.10;39.10;;;;;;4982208;28;20043;-62
2021/04/08 13:05:36;;;;;;;3.88;1.00;;;9.20;40.00;;;;;;4980819;28;20046;-62
2021/04/08 13:08:05;;;;;;;3.53;1.40;;;9.90;38.70;;;;;;4982201;28;20354;-62